Time;durP1;ratioP1;P1;durP2;ratioP2;P2;SDS_P1;SDS_P2;PMS_P1;PMS_P2;Temp;Humidity;BMP_temperature;BMP_pressure;BME280_temperature;BME280_humidity;BME280_pressure;Samples;Min_cycle;Max_cycle;Signal;HPM_P1;HPM_P2
2023/04/22 00:01:04;;;;;;;;;12.00;8.00;;;;;;;;5017986;28;45374;-82
2023/04/22 00:03:29;;;;;;;;;6.75;5.00;;;;;;;;5017751;28;47006;-82
2023/04/22 00:05:55;;;;;;;;;11.50;7.00;;;;;;;;5017512;28;45440;-82
2023/04/22 00:08:20;;;;;;;;;11.67;9.33;;;;;;;;5017812;28;45462;-82
2023/04/22 00:10:45;;;;;;;;;7.00;6.00;;;;;;;;5016410;28;45312;-82
2023/04/22 00:13:10;;;;;;;;;10.67;7.00;;;;;;;;5016107;28;48473;-82
2023/04/22 00:15:35;;;;;;;;;9.33;4.33;;;;;;;;5017607;28;45415;-82
2023/04/22 00:18:01;;;;;;;;;11.33;8.33;;;;;;;;5017738;28;45415;-81
2023/04/22 00:20:26;;;;;;;;;10.00;7.00;;;;;;;;5017230;28;45395;-82
2023/04/22 00:22:51;;;;;;;;;10.75;6.00;;;;;;;;5017449;28;46117;-82
2023/04/22 00:25:16;;;;;;;;;11.67;7.67;;;;;;;;5017553;28;45533;-82
2023/04/22 00:27:42;;;;;;;;;10.67;7.00;;;;;;;;5017626;28;45450;-82
2023/04/22 00:30:08;;;;;;;;;11.00;7.00;;;;;;;;5017505;28;45320;-82
2023/04/22 00:32:33;;;;;;;;;13.00;6.00;;;;;;;;5017201;28;45403;-82
2023/04/22 00:34:58;;;;;;;;;10.00;7.00;;;;;;;;5015763;28;45427;-82
2023/04/22 00:37:24;;;;;;;;;11.00;7.67;;;;;;;;5017306;28;45356;-82
2023/04/22 00:39:49;;;;;;;;;13.75;7.25;;;;;;;;5017185;28;45358;-82
2023/04/22 00:42:15;;;;;;;;;9.50;7.00;;;;;;;;5017053;28;46179;-82
2023/04/22 00:44:41;;;;;;;;;8.50;5.25;;;;;;;;5017044;28;45457;-82
2023/04/22 00:47:06;;;;;;;;;8.50;5.25;;;;;;;;5015843;28;45319;-82
2023/04/22 00:49:33;;;;;;;;;9.75;6.00;;;;;;;;5016899;28;45418;-82
2023/04/22 00:51:58;;;;;;;;;11.75;7.75;;;;;;;;5017102;28;45458;-83
2023/04/22 00:54:24;;;;;;;;;11.67;6.33;;;;;;;;5017436;28;45517;-82
2023/04/22 00:56:49;;;;;;;;;10.50;5.25;;;;;;;;5017085;28;45376;-82
2023/04/22 00:59:14;;;;;;;;;7.75;7.00;;;;;;;;5016994;28;45532;-82
2023/04/22 01:01:40;;;;;;;;;7.00;7.00;;;;;;;;5016858;28;46415;-82
2023/04/22 01:04:05;;;;;;;;;8.00;7.25;;;;;;;;5016594;28;45469;-82
2023/04/22 01:06:31;;;;;;;;;15.25;8.00;;;;;;;;5017234;28;45311;-81
2023/04/22 01:08:57;;;;;;;;;7.25;6.50;;;;;;;;5017075;28;45384;-81
2023/04/22 01:11:22;;;;;;;;;7.50;7.00;;;;;;;;5016692;28;45512;-82
2023/04/22 01:13:48;;;;;;;;;6.25;5.00;;;;;;;;5016882;28;45312;-82
2023/04/22 01:16:13;;;;;;;;;6.00;6.00;;;;;;;;5015295;28;45372;-82
2023/04/22 01:18:38;;;;;;;;;7.00;6.33;;;;;;;;5016421;28;45550;-82
2023/04/22 01:21:04;;;;;;;;;9.00;7.00;;;;;;;;5016113;28;45353;-82
2023/04/22 01:23:29;;;;;;;;;11.25;7.00;;;;;;;;5015321;28;45534;-82
2023/04/22 01:25:56;;;;;;;;;10.25;7.00;;;;;;;;5016900;28;45364;-81
2023/04/22 01:28:22;;;;;;;;;7.75;7.00;;;;;;;;5016615;28;45491;-81
2023/04/22 01:30:47;;;;;;;;;7.50;6.75;;;;;;;;5016319;28;47103;-81
2023/04/22 01:33:13;;;;;;;;;11.00;6.00;;;;;;;;5016089;28;45540;-82
2023/04/22 01:35:40;;;;;;;;;6.25;6.00;;;;;;;;5016483;28;45430;-81
2023/04/22 01:38:06;;;;;;;;;12.00;8.25;;;;;;;;5016379;28;45582;-82
2023/04/22 01:40:31;;;;;;;;;9.25;7.00;;;;;;;;5016417;28;45395;-83
2023/04/22 01:42:58;;;;;;;;;6.25;6.25;;;;;;;;5016234;28;45426;-82
2023/04/22 01:45:23;;;;;;;;;12.00;6.25;;;;;;;;5016323;28;45346;-82
2023/04/22 01:47:48;;;;;;;;;11.25;6.00;;;;;;;;5016019;28;45402;-82
2023/04/22 01:50:13;;;;;;;;;11.67;5.33;;;;;;;;5016042;28;45380;-82
2023/04/22 01:52:39;;;;;;;;;10.33;6.00;;;;;;;;5016196;28;45415;-82
2023/04/22 01:55:04;;;;;;;;;10.25;7.00;;;;;;;;5016190;28;45304;-82
2023/04/22 01:57:30;;;;;;;;;11.00;6.50;;;;;;;;5016030;28;45273;-82
2023/04/22 01:59:55;;;;;;;;;15.00;6.67;;;;;;;;5014672;28;47513;-82
2023/04/22 02:02:20;;;;;;;;;10.00;6.25;;;;;;;;5015462;28;45491;-82
2023/04/22 02:04:45;;;;;;;;;12.00;6.00;;;;;;;;5016263;28;45296;-82
2023/04/22 02:07:10;;;;;;;;;8.67;6.00;;;;;;;;5014859;28;45617;-82
2023/04/22 02:09:36;;;;;;;;;7.00;5.67;;;;;;;;5015665;28;47537;-82
2023/04/22 02:12:01;;;;;;;;;10.33;8.33;;;;;;;;5015836;28;45361;-82
2023/04/22 02:14:26;;;;;;;;;10.75;9.50;;;;;;;;5015964;28;45349;-82
2023/04/22 02:16:51;;;;;;;;;11.00;8.33;;;;;;;;5015568;28;45585;-81
2023/04/22 02:19:17;;;;;;;;;11.00;8.67;;;;;;;;5015674;28;45685;-82
2023/04/22 02:21:42;;;;;;;;;9.00;6.75;;;;;;;;5015589;28;45587;-81
2023/04/22 02:24:07;;;;;;;;;7.67;7.67;;;;;;;;5014578;28;45366;-82
2023/04/22 02:26:32;;;;;;;;;10.00;5.67;;;;;;;;5015937;28;45328;-82
2023/04/22 02:28:57;;;;;;;;;12.00;7.67;;;;;;;;5014203;28;46537;-81
2023/04/22 02:31:23;;;;;;;;;10.00;7.00;;;;;;;;5015361;28;45323;-81
2023/04/22 02:33:48;;;;;;;;;11.33;7.00;;;;;;;;5016969;28;45373;-81
2023/04/22 02:36:13;;;;;;;;;13.00;5.33;;;;;;;;5019379;28;45375;-82
2023/04/22 02:38:38;;;;;;;;;10.00;6.33;;;;;;;;5019195;28;47688;-83
2023/04/22 02:41:03;;;;;;;;;13.33;8.00;;;;;;;;5019315;28;45529;-82
2023/04/22 02:43:29;;;;;;;;;13.00;8.00;;;;;;;;5019483;28;45443;-82
2023/04/22 02:45:54;;;;;;;;;8.50;7.50;;;;;;;;5020201;28;45277;-82
2023/04/22 02:48:19;;;;;;;;;11.33;6.67;;;;;;;;5018100;28;46344;-82
2023/04/22 02:50:44;;;;;;;;;7.25;5.00;;;;;;;;5018966;28;45346;-82
2023/04/22 02:53:09;;;;;;;;;10.67;7.67;;;;;;;;5019171;28;45389;-82
2023/04/22 02:55:35;;;;;;;;;6.67;6.00;;;;;;;;5019159;28;45318;-83
2023/04/22 02:58:00;;;;;;;;;10.00;6.33;;;;;;;;5018593;28;46411;-82
2023/04/22 03:00:25;;;;;;;;;13.33;7.33;;;;;;;;5018763;28;45377;-82
2023/04/22 03:02:50;;;;;;;;;12.00;7.33;;;;;;;;5019154;28;45599;-82
2023/04/22 03:05:15;;;;;;;;;7.50;5.75;;;;;;;;5018921;28;45434;-82
2023/04/22 03:07:41;;;;;;;;;13.67;7.00;;;;;;;;5018647;28;46314;-82
2023/04/22 03:10:06;;;;;;;;;8.67;6.67;;;;;;;;5018493;28;45353;-82
2023/04/22 03:12:31;;;;;;;;;10.50;6.25;;;;;;;;5019078;28;45409;-83
2023/04/22 03:14:57;;;;;;;;;7.33;7.00;;;;;;;;5018368;28;45498;-83
2023/04/22 03:17:22;;;;;;;;;9.33;5.67;;;;;;;;5018506;28;45447;-82
2023/04/22 03:19:47;;;;;;;;;12.00;8.00;;;;;;;;5018599;28;45393;-82
2023/04/22 03:22:12;;;;;;;;;11.33;7.00;;;;;;;;5018655;28;45364;-82
2023/04/22 03:24:37;;;;;;;;;8.67;5.67;;;;;;;;5018653;28;45347;-83
2023/04/22 03:27:03;;;;;;;;;12.00;8.67;;;;;;;;5018297;28;46381;-82
2023/04/22 03:29:28;;;;;;;;;13.25;9.50;;;;;;;;5017868;28;45288;-82
2023/04/22 03:31:53;;;;;;;;;10.33;7.33;;;;;;;;5018566;28;45260;-82
2023/04/22 03:34:18;;;;;;;;;8.67;8.67;;;;;;;;5018322;28;45655;-82
2023/04/22 03:36:44;;;;;;;;;13.33;8.67;;;;;;;;5016854;28;47453;-82
2023/04/22 03:39:09;;;;;;;;;10.33;7.33;;;;;;;;5018231;28;45395;-82
2023/04/22 03:41:34;;;;;;;;;16.00;10.00;;;;;;;;5018293;28;45260;-81
2023/04/22 03:43:59;;;;;;;;;11.67;8.67;;;;;;;;5017597;28;45221;-82
2023/04/22 03:46:24;;;;;;;;;19.00;9.33;;;;;;;;5017716;28;45679;-82
2023/04/22 03:48:50;;;;;;;;;13.00;10.00;;;;;;;;5017989;28;45375;-82
2023/04/22 03:51:15;;;;;;;;;13.33;7.33;;;;;;;;5018572;28;45510;-82
2023/04/22 03:53:40;;;;;;;;;10.33;10.33;;;;;;;;5017971;28;45629;-82
2023/04/22 03:56:05;;;;;;;;;15.33;7.00;;;;;;;;5017852;28;45470;-82
2023/04/22 03:58:31;;;;;;;;;15.00;7.67;;;;;;;;5017547;28;45437;-82
2023/04/22 04:00:56;;;;;;;;;12.00;10.25;;;;;;;;5018004;28;45359;-82
2023/04/22 04:03:21;;;;;;;;;14.33;10.67;;;;;;;;5017914;28;45346;-81
2023/04/22 04:05:46;;;;;;;;;10.00;7.00;;;;;;;;5017697;28;47057;-82
2023/04/22 04:08:11;;;;;;;;;16.67;10.00;;;;;;;;5017776;28;45426;-82
2023/04/22 04:10:37;;;;;;;;;13.00;8.00;;;;;;;;5017956;28;45332;-83
2023/04/22 04:13:02;;;;;;;;;9.00;7.75;;;;;;;;5017400;28;45305;-83
2023/04/22 04:15:27;;;;;;;;;13.67;11.00;;;;;;;;5016255;28;47175;-83
2023/04/22 04:17:54;;;;;;;;;17.50;8.25;;;;;;;;5017552;28;45332;-81
2023/04/22 04:20:20;;;;;;;;;15.50;11.00;;;;;;;;5017614;28;45414;-80
2023/04/22 04:22:45;;;;;;;;;17.33;10.00;;;;;;;;5017634;28;45427;-81
2023/04/22 04:25:10;;;;;;;;;14.67;10.67;;;;;;;;5017440;28;45517;-82
2023/04/22 04:27:38;;;;;;;;;14.50;9.50;;;;;;;;5017278;28;45442;-82
2023/04/22 04:30:03;;;;;;;;;14.50;12.50;;;;;;;;5016238;28;45334;-82
2023/04/22 04:32:28;;;;;;;;;16.00;9.50;;;;;;;;5017391;28;45394;-81
2023/04/22 04:34:53;;;;;;;;;12.67;8.33;;;;;;;;5017328;28;46587;-82
2023/04/22 04:37:19;;;;;;;;;10.00;8.00;;;;;;;;5017237;28;45372;-81
2023/04/22 04:39:44;;;;;;;;;18.33;10.67;;;;;;;;5017380;28;45262;-82
2023/04/22 04:42:10;;;;;;;;;15.00;12.00;;;;;;;;5016949;28;45367;-81
2023/04/22 04:44:36;;;;;;;;;8.50;8.50;;;;;;;;5017014;28;45376;-81
2023/04/22 04:47:02;;;;;;;;;6.25;3.00;;;;;;;;5016779;28;45415;-81
2023/04/22 04:49:29;;;;;;;;;12.25;10.50;;;;;;;;5017363;28;45693;-82
2023/04/22 04:51:54;;;;;;;;;10.00;7.00;;;;;;;;5017257;28;45371;-82
2023/04/22 04:54:19;;;;;;;;;16.25;9.50;;;;;;;;5017084;28;46481;-81
2023/04/22 04:56:45;;;;;;;;;12.67;10.33;;;;;;;;5015960;28;45311;-81
2023/04/22 04:59:10;;;;;;;;;25.67;9.67;;;;;;;;5017137;28;45286;-81
2023/04/22 05:01:35;;;;;;;;;19.67;12.67;;;;;;;;5017074;28;45398;-80
2023/04/22 05:04:00;;;;;;;;;12.00;11.33;;;;;;;;5016723;28;46457;-80
2023/04/22 05:06:25;;;;;;;;;12.00;10.33;;;;;;;;5016980;28;45357;-80
2023/04/22 05:08:51;;;;;;;;;14.00;10.00;;;;;;;;5016982;28;45293;-80
2023/04/22 05:11:16;;;;;;;;;21.33;14.33;;;;;;;;5015016;28;45517;-80
2023/04/22 05:13:41;;;;;;;;;14.75;10.75;;;;;;;;5016594;28;47321;-80
2023/04/22 05:16:06;;;;;;;;;16.00;12.00;;;;;;;;5016793;28;45321;-80
2023/04/22 05:18:32;;;;;;;;;16.33;10.67;;;;;;;;5016689;28;45616;-81
2023/04/22 05:21:02;;;;;;;;;18.33;12.33;;;;;;;;5016750;28;45786;-81
2023/04/22 05:23:29;;;;;;;;;16.00;11.00;;;;;;;;5016485;28;47232;-81
2023/04/22 05:25:54;;;;;;;;;17.50;12.00;;;;;;;;5016395;28;45827;-80
2023/04/22 05:28:19;;;;;;;;;16.25;12.25;;;;;;;;5016620;28;45443;-80
2023/04/22 05:30:45;;;;;;;;;22.67;13.33;;;;;;;;5016745;28;45369;-80
2023/04/22 05:33:10;;;;;;;;;17.33;10.33;;;;;;;;5016545;28;47107;-80
2023/04/22 05:35:35;;;;;;;;;12.67;8.33;;;;;;;;5016617;28;45553;-80
2023/04/22 05:38:01;;;;;;;;;19.00;11.67;;;;;;;;5016484;28;45389;-80
2023/04/22 05:40:26;;;;;;;;;18.50;10.75;;;;;;;;5014893;28;45489;-80
2023/04/22 05:42:52;;;;;;;;;14.33;11.00;;;;;;;;5016244;28;45422;-80
2023/04/22 05:45:17;;;;;;;;;15.33;11.67;;;;;;;;5016127;28;45445;-79
2023/04/22 05:47:42;;;;;;;;;23.00;14.00;;;;;;;;5016448;28;45373;-78
2023/04/22 05:50:08;;;;;;;;;19.00;14.00;;;;;;;;5016398;28;45265;-78
2023/04/22 05:52:33;;;;;;;;;19.50;15.00;;;;;;;;5016121;28;46071;-78
2023/04/22 05:54:58;;;;;;;;;20.25;16.50;;;;;;;;5015857;28;45467;-79
2023/04/22 05:57:23;;;;;;;;;17.67;11.67;;;;;;;;5016195;28;45373;-79
2023/04/22 05:59:48;;;;;;;;;17.33;11.00;;;;;;;;5016195;28;45534;-79
2023/04/22 06:02:15;;;;;;;;;17.00;14.33;;;;;;;;5015915;28;45706;-79
2023/04/22 06:04:40;;;;;;;;;14.75;11.00;;;;;;;;5016215;28;45368;-79
2023/04/22 06:07:05;;;;;;;;;19.00;15.00;;;;;;;;5014894;28;45394;-79
2023/04/22 06:09:30;;;;;;;;;21.00;15.33;;;;;;;;5015792;28;45384;-79
2023/04/22 06:11:56;;;;;;;;;17.33;11.33;;;;;;;;5015695;28;45379;-79
2023/04/22 06:14:22;;;;;;;;;16.75;12.50;;;;;;;;5015821;28;45750;-79
2023/04/22 06:16:49;;;;;;;;;15.67;12.67;;;;;;;;5015859;28;45374;-79
2023/04/22 06:19:14;;;;;;;;;18.25;10.75;;;;;;;;5015852;28;45611;-79
2023/04/22 06:21:41;;;;;;;;;15.00;12.75;;;;;;;;5015721;28;47368;-79
2023/04/22 06:24:07;;;;;;;;;27.00;14.50;;;;;;;;5015262;28;45357;-79
2023/04/22 06:26:33;;;;;;;;;18.50;13.25;;;;;;;;5015828;28;45341;-80
2023/04/22 06:28:58;;;;;;;;;15.75;10.50;;;;;;;;5015716;28;45452;-80
2023/04/22 06:31:23;;;;;;;;;19.50;13.25;;;;;;;;5015609;28;45331;-79
2023/04/22 06:33:48;;;;;;;;;17.00;14.33;;;;;;;;5015728;28;45265;-79
2023/04/22 06:36:14;;;;;;;;;32.67;12.67;;;;;;;;5015765;28;45506;-80
2023/04/22 06:38:39;;;;;;;;;17.00;13.25;;;;;;;;5015307;28;45300;-80
2023/04/22 06:41:04;;;;;;;;;22.00;14.33;;;;;;;;5015481;28;45449;-79
2023/04/22 06:43:29;;;;;;;;;18.33;14.00;;;;;;;;5015511;28;45403;-79
2023/04/22 06:45:54;;;;;;;;;18.33;14.67;;;;;;;;5015300;28;45467;-79
2023/04/22 06:48:20;;;;;;;;;20.33;17.33;;;;;;;;5015504;28;45431;-79
2023/04/22 06:50:45;;;;;;;;;24.33;12.00;;;;;;;;5015362;28;45450;-79
2023/04/22 06:53:10;;;;;;;;;18.33;11.00;;;;;;;;5015109;28;45236;-79
2023/04/22 06:55:35;;;;;;;;;16.00;10.67;;;;;;;;5015506;28;45364;-79
2023/04/22 06:58:00;;;;;;;;;21.00;14.00;;;;;;;;5015479;28;45384;-79
2023/04/22 07:00:27;;;;;;;;;21.50;12.50;;;;;;;;5015171;28;46685;-79
2023/04/22 07:02:52;;;;;;;;;20.25;13.25;;;;;;;;5015309;28;45905;-79
2023/04/22 07:05:17;;;;;;;;;17.33;14.33;;;;;;;;5015368;28;45364;-79
2023/04/22 07:07:42;;;;;;;;;21.67;12.67;;;;;;;;5014687;28;45292;-78
2023/04/22 07:10:08;;;;;;;;;17.33;12.00;;;;;;;;5014920;28;45494;-78
2023/04/22 07:12:33;;;;;;;;;14.50;11.75;;;;;;;;5014675;28;45383;-78
2023/04/22 07:14:58;;;;;;;;;18.33;13.67;;;;;;;;5015267;28;45304;-79
2023/04/22 07:17:23;;;;;;;;;15.00;13.00;;;;;;;;5014943;28;45343;-79
2023/04/22 07:19:48;;;;;;;;;20.00;14.33;;;;;;;;5015996;28;46522;-78
2023/04/22 07:22:14;;;;;;;;;20.33;15.00;;;;;;;;5018094;28;45296;-79
2023/04/22 07:24:39;;;;;;;;;13.75;12.25;;;;;;;;5018667;28;45348;-79
2023/04/22 07:27:05;;;;;;;;;22.00;13.00;;;;;;;;5018468;28;45399;-79
2023/04/22 07:29:30;;;;;;;;;21.00;15.00;;;;;;;;5017019;28;47186;-79
2023/04/22 07:31:55;;;;;;;;;17.33;15.67;;;;;;;;5018392;28;45423;-79
2023/04/22 07:34:20;;;;;;;;;20.00;15.67;;;;;;;;5018560;28;45412;-79
2023/04/22 07:36:45;;;;;;;;;17.33;15.00;;;;;;;;5017901;28;45265;-79
2023/04/22 07:39:11;;;;;;;;;20.67;12.00;;;;;;;;5018179;28;46977;-79
2023/04/22 07:41:36;;;;;;;;;17.00;11.00;;;;;;;;5018077;28;45277;-79
2023/04/22 07:44:02;;;;;;;;;16.33;13.67;;;;;;;;5018369;28;45285;-79
2023/04/22 07:46:27;;;;;;;;;13.50;9.00;;;;;;;;5017962;28;45313;-78
2023/04/22 07:48:53;;;;;;;;;17.00;12.75;;;;;;;;5017606;28;46852;-78
2023/04/22 07:51:18;;;;;;;;;19.00;13.25;;;;;;;;5018050;28;45346;-79
2023/04/22 07:53:43;;;;;;;;;16.25;9.00;;;;;;;;5018253;28;45415;-79
2023/04/22 07:56:09;;;;;;;;;16.00;12.00;;;;;;;;5017940;28;45296;-79
2023/04/22 07:58:34;;;;;;;;;16.00;13.75;;;;;;;;5017750;28;45293;-79
2023/04/22 08:00:59;;;;;;;;;17.50;12.75;;;;;;;;5018059;28;45264;-79
2023/04/22 08:03:25;;;;;;;;;15.00;11.00;;;;;;;;5017876;28;45472;-79
2023/04/22 08:05:50;;;;;;;;;18.75;12.00;;;;;;;;5018166;28;45206;-79
2023/04/22 08:08:15;;;;;;;;;17.75;14.25;;;;;;;;5009426;28;45388;-78
2023/04/22 08:10:41;;;;;;;;;24.25;14.00;;;;;;;;5015352;28;45446;-79
2023/04/22 08:13:06;;;;;;;;;18.33;13.00;;;;;;;;5017805;28;45331;-79
2023/04/22 08:15:31;;;;;;;;;16.00;12.00;;;;;;;;5016948;28;45308;-79
2023/04/22 08:17:56;;;;;;;;;18.67;11.33;;;;;;;;5005442;28;46678;-79
2023/04/22 08:20:22;;;;;;;;;10.50;10.50;;;;;;;;4997132;28;45557;-81
2023/04/22 08:22:49;;;;;;;;;15.50;11.00;;;;;;;;4997562;28;45424;-80
2023/04/22 08:25:14;;;;;;;;;12.75;9.75;;;;;;;;5008480;28;45750;-82
2023/04/22 08:27:40;;;;;;;;;15.50;11.00;;;;;;;;4997328;28;45770;-82
2023/04/22 08:30:06;;;;;;;;;13.75;13.00;;;;;;;;5014894;28;45333;-81
2023/04/22 08:32:31;;;;;;;;;19.25;12.00;;;;;;;;5016037;28;45202;-83
2023/04/22 08:34:56;;;;;;;;;18.00;11.75;;;;;;;;5017507;28;45287;-83
2023/04/22 08:37:22;;;;;;;;;15.67;11.67;;;;;;;;5017042;28;46300;-79
2023/04/22 08:39:47;;;;;;;;;16.67;11.00;;;;;;;;5017370;28;45304;-79
2023/04/22 08:42:12;;;;;;;;;18.00;14.33;;;;;;;;5017365;28;45382;-80
2023/04/22 08:44:38;;;;;;;;;20.25;17.50;;;;;;;;5016635;28;45578;-79
2023/04/22 08:47:04;;;;;;;;;20.00;15.25;;;;;;;;5016496;28;45500;-80
2023/04/22 08:49:29;;;;;;;;;24.00;16.75;;;;;;;;5017158;28;45238;-81
2023/04/22 08:51:55;;;;;;;;;21.67;17.33;;;;;;;;5014439;28;45364;-78
2023/04/22 08:54:21;;;;;;;;;21.50;18.25;;;;;;;;5010357;28;45450;-80
2023/04/22 08:56:49;;;;;;;;;26.25;19.25;;;;;;;;5004945;28;46789;-78
2023/04/22 08:59:15;;;;;;;;;24.00;18.75;;;;;;;;5016101;28;45963;-82
2023/04/22 09:01:40;;;;;;;;;27.25;18.75;;;;;;;;4997813;28;45411;-81
2023/04/22 09:04:08;;;;;;;;;22.75;18.00;;;;;;;;5008932;28;45463;-81
2023/04/22 09:06:33;;;;;;;;;21.50;20.75;;;;;;;;5015372;28;46494;-80
2023/04/22 09:08:59;;;;;;;;;19.67;14.67;;;;;;;;5007861;28;45441;-80
2023/04/22 09:11:28;;;;;;;;;22.75;16.25;;;;;;;;4999425;28;45761;-81
2023/04/22 09:13:53;;;;;;;;;25.75;21.25;;;;;;;;5001086;28;45763;-81
2023/04/22 09:16:19;;;;;;;;;18.75;16.25;;;;;;;;5015976;28;46066;-81
2023/04/22 09:18:47;;;;;;;;;27.25;22.50;;;;;;;;5010821;28;46668;-80
2023/04/22 09:21:12;;;;;;;;;23.50;17.50;;;;;;;;4997074;28;45346;-81
2023/04/22 09:23:48;;;;;;;;;21.75;17.50;;;;;;;;4996647;28;45295;-79
2023/04/22 09:26:14;;;;;;;;;18.25;17.00;;;;;;;;5008626;28;45506;-80
2023/04/22 09:28:47;;;;;;;;;23.25;17.00;;;;;;;;4996500;28;45850;-81
2023/04/22 09:31:13;;;;;;;;;24.00;19.50;;;;;;;;4997085;28;45526;-82
2023/04/22 09:33:38;;;;;;;;;22.00;15.75;;;;;;;;5005984;28;45694;-84
2023/04/22 09:36:07;;;;;;;;;28.50;22.50;;;;;;;;5007151;28;47168;-82
2023/04/22 09:38:32;;;;;;;;;26.50;17.25;;;;;;;;4999891;28;45746;-82
2023/04/22 09:40:57;;;;;;;;;23.67;20.00;;;;;;;;5005854;28;45508;-81
2023/04/22 09:43:23;;;;;;;;;26.00;19.33;;;;;;;;5010363;28;45340;-82
2023/04/22 09:45:48;;;;;;;;;33.33;17.00;;;;;;;;5010932;28;46113;-81
2023/04/22 09:48:17;;;;;;;;;25.25;18.00;;;;;;;;4997812;28;45435;-81
2023/04/22 09:50:46;;;;;;;;;28.25;18.50;;;;;;;;4996548;28;45404;-79
2023/04/22 09:53:13;;;;;;;;;23.50;16.00;;;;;;;;4996424;28;45429;-78
2023/04/22 09:55:40;;;;;;;;;24.00;16.75;;;;;;;;5012566;28;45507;-79
2023/04/22 09:58:10;;;;;;;;;21.25;14.25;;;;;;;;5006805;28;45772;-79
2023/04/22 10:00:40;;;;;;;;;28.50;19.25;;;;;;;;4994608;28;45447;-79
2023/04/22 10:03:05;;;;;;;;;24.75;19.25;;;;;;;;5010554;28;45440;-78
2023/04/22 10:05:32;;;;;;;;;23.50;12.75;;;;;;;;5015498;28;45568;-79
2023/04/22 10:07:57;;;;;;;;;31.25;19.75;;;;;;;;5013547;28;45416;-79
2023/04/22 10:10:22;;;;;;;;;24.25;15.75;;;;;;;;5000544;28;45571;-78
2023/04/22 10:12:49;;;;;;;;;23.67;17.67;;;;;;;;5011238;28;45351;-79
2023/04/22 10:15:14;;;;;;;;;23.00;16.25;;;;;;;;5010905;28;46224;-80
2023/04/22 10:17:40;;;;;;;;;20.33;14.67;;;;;;;;5007885;28;45367;-80
2023/04/22 10:20:12;;;;;;;;;18.50;15.00;;;;;;;;4997241;28;45481;-79
2023/04/22 10:22:37;;;;;;;;;16.75;13.25;;;;;;;;5006719;28;45282;-79
2023/04/22 10:25:03;;;;;;;;;17.75;12.00;;;;;;;;5008803;28;45954;-79
2023/04/22 10:27:28;;;;;;;;;22.00;15.50;;;;;;;;5010424;28;45448;-78
2023/04/22 10:29:55;;;;;;;;;17.33;10.33;;;;;;;;4995871;28;45622;-78
2023/04/22 10:32:21;;;;;;;;;19.75;14.75;;;;;;;;5002726;28;45554;-79
2023/04/22 10:34:47;;;;;;;;;18.00;16.25;;;;;;;;5005871;28;45363;-80
2023/04/22 10:37:13;;;;;;;;;12.75;12.25;;;;;;;;5007186;28;45376;-82
2023/04/22 10:39:39;;;;;;;;;18.25;12.25;;;;;;;;5012473;28;45435;-82
2023/04/22 10:42:09;;;;;;;;;20.00;14.00;;;;;;;;4998531;28;45557;-80
2023/04/22 10:44:49;;;;;;;;;20.00;13.50;;;;;;;;5011076;28;45443;-79
2023/04/22 10:47:27;;;;;;;;;16.50;11.50;;;;;;;;5007877;28;45801;-79
2023/04/22 10:50:12;;;;;;;;;13.25;10.25;;;;;;;;5014633;28;45284;-79
2023/04/22 10:52:38;;;;;;;;;13.50;10.00;;;;;;;;4995433;28;45519;-78
2023/04/22 10:55:03;;;;;;;;;18.00;11.25;;;;;;;;4997100;28;45590;-78
2023/04/22 10:57:36;;;;;;;;;13.00;8.75;;;;;;;;4998606;28;45389;-79
2023/04/22 11:00:22;;;;;;;;;14.00;8.75;;;;;;;;5001673;28;45367;-80
2023/04/22 11:03:05;;;;;;;;;12.00;8.00;;;;;;;;5005907;28;45324;-78
2023/04/22 11:05:31;;;;;;;;;9.25;7.00;;;;;;;;5000313;28;46467;-79
2023/04/22 11:08:16;;;;;;;;;11.50;7.50;;;;;;;;5013220;28;45444;-79
2023/04/22 11:10:43;;;;;;;;;11.50;7.50;;;;;;;;4998656;28;45462;-79
2023/04/22 11:13:10;;;;;;;;;16.75;10.50;;;;;;;;5016293;28;45550;-79
2023/04/22 11:15:36;;;;;;;;;12.00;9.25;;;;;;;;5018122;28;46503;-81
2023/04/22 11:18:02;;;;;;;;;12.75;8.75;;;;;;;;5018389;28;45903;-79
2023/04/22 11:20:27;;;;;;;;;12.75;10.00;;;;;;;;5002464;28;45405;-80
2023/04/22 11:22:54;;;;;;;;;12.25;8.00;;;;;;;;4998629;28;45517;-79
2023/04/22 11:25:20;;;;;;;;;15.75;8.00;;;;;;;;5002130;28;46768;-80
2023/04/22 11:27:46;;;;;;;;;15.50;8.25;;;;;;;;5014417;28;45416;-80
2023/04/22 11:30:13;;;;;;;;;8.75;7.50;;;;;;;;5011867;28;45343;-79
2023/04/22 11:32:40;;;;;;;;;11.25;11.25;;;;;;;;5011773;28;45576;-79
2023/04/22 11:35:07;;;;;;;;;18.75;9.25;;;;;;;;5003261;28;46430;-79
2023/04/22 11:37:42;;;;;;;;;13.25;9.75;;;;;;;;5002374;28;45424;-79
2023/04/22 11:40:11;;;;;;;;;12.00;8.25;;;;;;;;5017776;28;45394;-80
2023/04/22 11:42:37;;;;;;;;;11.75;8.00;;;;;;;;5018070;28;45274;-79
2023/04/22 11:45:03;;;;;;;;;12.25;8.00;;;;;;;;5015799;28;46106;-79
2023/04/22 11:47:29;;;;;;;;;9.75;6.75;;;;;;;;5015579;28;45372;-79
2023/04/22 11:49:58;;;;;;;;;10.25;8.25;;;;;;;;5010084;28;45326;-78
2023/04/22 11:52:44;;;;;;;;;11.00;7.25;;;;;;;;4999392;28;45403;-80
2023/04/22 11:55:19;;;;;;;;;11.75;8.25;;;;;;;;4976285;28;45657;-80
2023/04/22 11:57:49;;;;;;;;;10.00;7.75;;;;;;;;4976225;28;45846;-79
2023/04/22 12:00:16;;;;;;;;;10.50;6.00;;;;;;;;4976340;28;45400;-80
2023/04/22 12:02:44;;;;;;;;;13.00;8.25;;;;;;;;4993102;28;45453;-80
2023/04/22 12:05:11;;;;;;;;;9.00;8.25;;;;;;;;4995377;28;45497;-78
2023/04/22 12:07:36;;;;;;;;;12.75;8.50;;;;;;;;4995755;28;45538;-77
2023/04/22 12:10:06;;;;;;;;;11.00;10.50;;;;;;;;4985506;28;46782;-78
2023/04/22 12:12:34;;;;;;;;;9.00;7.50;;;;;;;;4991292;28;45374;-78
2023/04/22 12:15:05;;;;;;;;;8.50;6.75;;;;;;;;4994636;28;46994;-78
2023/04/22 12:17:30;;;;;;;;;16.00;8.25;;;;;;;;4995879;28;45660;-77
2023/04/22 12:19:56;;;;;;;;;9.33;7.67;;;;;;;;4994025;28;45537;-77
2023/04/22 12:22:25;;;;;;;;;11.25;5.25;;;;;;;;4981407;28;45596;-78
2023/04/22 12:24:50;;;;;;;;;8.00;5.00;;;;;;;;4975314;28;45834;-77
2023/04/22 12:27:15;;;;;;;;;13.67;8.67;;;;;;;;4995539;28;45476;-80
2023/04/22 12:29:49;;;;;;;;;8.50;5.50;;;;;;;;4976746;28;45492;-80
2023/04/22 12:32:14;;;;;;;;;8.75;5.50;;;;;;;;4996636;28;45589;-80
2023/04/22 12:34:40;;;;;;;;;12.00;9.00;;;;;;;;5017038;28;46392;-78
2023/04/22 12:37:05;;;;;;;;;14.00;8.33;;;;;;;;4997423;28;45342;-78
2023/04/22 12:39:31;;;;;;;;;13.00;9.00;;;;;;;;5012683;28;45414;-76
2023/04/22 12:41:56;;;;;;;;;12.50;8.00;;;;;;;;5013008;28;45646;-79
2023/04/22 12:44:21;;;;;;;;;11.50;8.50;;;;;;;;5016682;28;45584;-78
2023/04/22 12:46:47;;;;;;;;;11.00;7.67;;;;;;;;5016813;28;45269;-78
2023/04/22 12:49:13;;;;;;;;;8.67;8.00;;;;;;;;5015602;28;45435;-83
2023/04/22 12:51:38;;;;;;;;;11.50;9.00;;;;;;;;5013440;28;45399;-78
2023/04/22 12:54:03;;;;;;;;;6.50;6.50;;;;;;;;5008296;28;45323;-79
2023/04/22 12:56:29;;;;;;;;;12.50;8.50;;;;;;;;5017792;28;45368;-78
2023/04/22 12:58:54;;;;;;;;;8.33;7.67;;;;;;;;5015703;28;45708;-79
2023/04/22 13:01:19;;;;;;;;;17.50;9.25;;;;;;;;5015241;28;45455;-79
2023/04/22 13:03:45;;;;;;;;;17.00;10.67;;;;;;;;5007039;28;47341;-79
2023/04/22 13:06:10;;;;;;;;;11.75;7.00;;;;;;;;5015927;28;45487;-78
2023/04/22 13:08:36;;;;;;;;;9.67;6.00;;;;;;;;5016670;28;45416;-79
2023/04/22 13:11:01;;;;;;;;;11.00;7.50;;;;;;;;5016205;28;45278;-81
2023/04/22 13:13:26;;;;;;;;;9.00;6.33;;;;;;;;5016634;28;46143;-79
2023/04/22 13:15:52;;;;;;;;;12.00;7.00;;;;;;;;5004364;28;45388;-81
2023/04/22 13:18:17;;;;;;;;;8.50;6.50;;;;;;;;4996382;28;45340;-80
2023/04/22 13:20:42;;;;;;;;;8.75;7.75;;;;;;;;5008309;28;45509;-80
2023/04/22 13:23:08;;;;;;;;;8.00;8.00;;;;;;;;5013078;28;46257;-81
2023/04/22 13:25:33;;;;;;;;;6.75;6.00;;;;;;;;5002864;28;45491;-81
2023/04/22 13:27:59;;;;;;;;;10.00;8.00;;;;;;;;4997002;28;45362;-81
2023/04/22 13:30:24;;;;;;;;;12.50;7.50;;;;;;;;5015023;28;45342;-81
2023/04/22 13:32:49;;;;;;;;;11.00;9.00;;;;;;;;5016430;28;46917;-81
2023/04/22 13:35:16;;;;;;;;;13.67;8.67;;;;;;;;5016581;28;45383;-83
2023/04/22 13:37:42;;;;;;;;;11.25;8.50;;;;;;;;5014662;28;45431;-82
2023/04/22 13:40:07;;;;;;;;;9.00;6.67;;;;;;;;5014782;28;45269;-84
2023/04/22 13:42:33;;;;;;;;;7.75;7.25;;;;;;;;5014529;28;46516;-82
2023/04/22 13:44:58;;;;;;;;;9.00;7.00;;;;;;;;5015766;28;45502;-82
2023/04/22 13:47:23;;;;;;;;;9.50;6.25;;;;;;;;4996608;28;45270;-83
2023/04/22 13:49:48;;;;;;;;;9.33;7.00;;;;;;;;4999348;28;45447;-84
2023/04/22 13:52:14;;;;;;;;;9.00;7.00;;;;;;;;5012038;28;47198;-83
2023/04/22 13:54:40;;;;;;;;;10.00;6.75;;;;;;;;5016488;28;45865;-82
2023/04/22 13:57:05;;;;;;;;;7.00;7.00;;;;;;;;5014737;28;45218;-84
2023/04/22 13:59:30;;;;;;;;;9.33;7.33;;;;;;;;5016240;28;45450;-84
2023/04/22 14:01:55;;;;;;;;;10.00;6.00;;;;;;;;5016069;28;45556;-83
2023/04/22 14:04:20;;;;;;;;;8.67;7.00;;;;;;;;5016176;28;45487;-86
2023/04/22 14:06:46;;;;;;;;;11.67;6.33;;;;;;;;5014909;28;45385;-84
2023/04/22 14:09:11;;;;;;;;;10.75;7.50;;;;;;;;5016069;28;45442;-86
2023/04/22 14:11:36;;;;;;;;;9.33;8.00;;;;;;;;5011916;28;46126;-86
2023/04/22 14:14:01;;;;;;;;;10.67;6.33;;;;;;;;4996615;28;45456;-85
2023/04/22 14:16:26;;;;;;;;;9.00;6.00;;;;;;;;5003582;28;45428;-86
2023/04/22 14:18:52;;;;;;;;;10.67;6.33;;;;;;;;5017544;28;45408;-86